Time;durP1;ratioP1;P1;durP2;ratioP2;P2;SDS_P1;SDS_P2;PMS_P1;PMS_P2;Temp;Humidity;BMP_temperature;BMP_pressure;BME280_temperature;BME280_humidity;BME280_pressure;Samples;Min_cycle;Max_cycle;Signal;HPM_P1;HPM_P2
2022/01/08 00:02:08;;;;;;;1.10;0.70;;;17.40;36.90;;;;;;5070403;28;20221;-63
2022/01/08 00:04:34;;;;;;;0.70;0.70;;;17.40;36.90;;;;;;5069834;28;20594;-63
2022/01/08 00:06:59;;;;;;;1.00;0.90;;;17.40;36.90;;;;;;5070263;28;20263;-63
2022/01/08 00:09:25;;;;;;;0.83;0.80;;;17.40;36.90;;;;;;5070257;28;20252;-63
2022/01/08 00:11:50;;;;;;;0.90;0.87;;;17.40;36.90;;;;;;5069772;28;20222;-63
2022/01/08 00:14:16;;;;;;;1.00;0.90;;;17.40;36.90;;;;;;5070333;28;20214;-63
2022/01/08 00:16:42;;;;;;;1.10;1.00;;;17.40;36.90;;;;;;5067958;28;20234;-63
2022/01/08 00:19:08;;;;;;;1.10;1.00;;;17.40;36.90;;;;;;5070421;28;20242;-63
2022/01/08 00:21:34;;;;;;;0.80;0.80;;;17.40;36.90;;;;;;5068721;28;20726;-63
2022/01/08 00:24:00;;;;;;;0.97;0.90;;;17.40;36.90;;;;;;5068367;28;20218;-63
2022/01/08 00:26:26;;;;;;;1.10;1.00;;;17.40;36.90;;;;;;5070031;28;20445;-63
2022/01/08 00:28:52;;;;;;;1.30;1.20;;;17.40;36.90;;;;;;5068440;28;20444;-63
2022/01/08 00:31:17;;;;;;;0.80;0.70;;;17.40;36.90;;;;;;5067889;28;20226;-63
2022/01/08 00:33:43;;;;;;;1.10;0.90;;;17.40;36.90;;;;;;5069922;28;20428;-63
2022/01/08 00:36:09;;;;;;;1.00;0.90;;;17.40;36.90;;;;;;5051525;28;20297;-63
2022/01/08 00:38:35;;;;;;;0.80;0.73;;;17.40;36.90;;;;;;5069555;28;20300;-63
2022/01/08 00:41:01;;;;;;;1.53;0.83;;;17.40;36.90;;;;;;5069025;28;20319;-63
2022/01/08 00:43:26;;;;;;;1.83;1.03;;;17.40;36.90;;;;;;5069435;28;21124;-63
2022/01/08 00:45:52;;;;;;;0.97;0.87;;;17.40;36.90;;;;;;5069935;28;20234;-63
2022/01/08 00:48:18;;;;;;;1.23;1.13;;;17.50;37.00;;;;;;5069651;28;20266;-63
2022/01/08 00:50:44;;;;;;;1.30;0.93;;;17.50;37.00;;;;;;5069509;28;20658;-63
2022/01/08 00:53:10;;;;;;;0.97;0.87;;;17.50;37.00;;;;;;5069890;28;20433;-63
2022/01/08 00:55:35;;;;;;;0.90;0.80;;;17.50;37.00;;;;;;5068952;28;20225;-63
2022/01/08 00:58:01;;;;;;;0.90;0.80;;;17.50;37.00;;;;;;5069158;28;20589;-63
2022/01/08 01:00:27;;;;;;;0.80;0.80;;;17.50;37.00;;;;;;5069264;28;20222;-63
2022/01/08 01:02:53;;;;;;;0.80;0.80;;;17.50;37.00;;;;;;5069241;28;20343;-63
2022/01/08 01:05:20;;;;;;;0.90;0.87;;;17.60;37.10;;;;;;5067008;28;20225;-63
2022/01/08 01:07:46;;;;;;;1.00;0.90;;;17.60;37.10;;;;;;5069382;28;20447;-63
2022/01/08 01:10:12;;;;;;;1.37;0.90;;;17.60;37.10;;;;;;5069188;28;20496;-64
2022/01/08 01:12:38;;;;;;;1.27;1.00;;;17.60;37.10;;;;;;5050726;28;20425;-63
2022/01/08 01:15:06;;;;;;;1.17;1.00;;;17.60;37.10;;;;;;5069380;28;20504;-63
2022/01/08 01:17:31;;;;;;;1.00;0.90;;;17.60;37.10;;;;;;5068788;28;20501;-63
2022/01/08 01:19:57;;;;;;;0.80;0.80;;;17.60;37.10;;;;;;5065618;28;20550;-63
2022/01/08 01:22:28;;;;;;;1.10;1.00;;;17.60;37.10;;;;;;5051246;28;20221;-63
2022/01/08 01:25:01;;;;;;;0.87;0.80;;;17.60;37.80;;;;;;5069063;28;20305;-63
2022/01/08 01:30:14;;;;;;;1.00;0.77;;;17.60;37.10;;;;;;5068080;28;20417;-63
2022/01/08 01:41:18;;;;;;;1.00;0.90;;;17.60;37.50;;;;;;5068745;28;20544;-63
2022/01/08 01:48:52;;;;;;;1.20;1.10;;;17.60;37.10;;;;;;5066609;28;20813;-64
2022/01/08 01:51:20;;;;;;;1.00;0.90;;;17.50;37.00;;;;;;5068730;28;20447;-64
2022/01/08 01:53:46;;;;;;;1.13;1.03;;;17.50;37.00;;;;;;5068621;28;20421;-63
2022/01/08 01:56:14;;;;;;;1.10;0.90;;;17.50;37.00;;;;;;5068828;28;20421;-64
2022/01/08 01:58:40;;;;;;;0.87;0.87;;;17.50;37.00;;;;;;5067971;28;20620;-63
2022/01/08 02:01:06;;;;;;;1.00;0.90;;;17.50;37.00;;;;;;5068677;28;20509;-63
2022/01/08 02:03:31;;;;;;;1.00;0.90;;;17.50;37.00;;;;;;5068532;28;20571;-63
2022/01/08 02:05:57;;;;;;;1.10;1.00;;;17.50;37.00;;;;;;5068705;28;20328;-63
2022/01/08 02:08:22;;;;;;;1.20;1.10;;;17.50;37.00;;;;;;5068526;28;20217;-63
2022/01/08 02:10:48;;;;;;;0.80;0.80;;;17.50;37.00;;;;;;5068707;28;20838;-63
2022/01/08 02:13:25;;;;;;;1.10;1.00;;;17.50;37.00;;;;;;5068478;28;20228;-64
2022/01/08 02:15:53;;;;;;;1.20;1.10;;;17.50;37.00;;;;;;5049924;28;20685;-63
2022/01/08 02:18:25;;;;;;;1.30;0.80;;;17.50;37.00;;;;;;5071947;28;20449;-63
2022/01/08 02:20:55;;;;;;;1.00;0.90;;;17.50;37.00;;;;;;5068920;28;20464;-63
2022/01/08 02:23:21;;;;;;;1.00;0.90;;;17.50;37.00;;;;;;5072330;28;20874;-63
2022/01/08 02:25:46;;;;;;;0.87;0.80;;;17.50;37.00;;;;;;5070071;28;21002;-64
2022/01/08 02:28:12;;;;;;;1.00;0.87;;;17.50;37.00;;;;;;5071982;28;20283;-64
2022/01/08 02:30:37;;;;;;;1.00;0.90;;;17.50;37.00;;;;;;5069696;28;20325;-64
2022/01/08 02:33:03;;;;;;;1.00;0.90;;;17.50;37.00;;;;;;5067986;28;20570;-63
2022/01/08 02:35:29;;;;;;;0.90;0.90;;;17.50;37.00;;;;;;5071114;28;20594;-63
2022/01/08 02:37:55;;;;;;;0.80;0.80;;;17.50;37.00;;;;;;5071753;28;20252;-64
2022/01/08 02:40:22;;;;;;;0.90;0.80;;;17.50;37.00;;;;;;5071399;28;20425;-63
2022/01/08 02:42:59;;;;;;;1.20;1.03;;;17.50;37.00;;;;;;5067290;28;20215;-64
2022/01/08 02:45:25;;;;;;;0.90;0.80;;;17.50;37.00;;;;;;5071237;28;20530;-63
2022/01/08 02:47:52;;;;;;;1.00;0.90;;;17.50;37.00;;;;;;5071999;28;20425;-64
2022/01/08 02:50:18;;;;;;;1.03;0.93;;;17.40;36.90;;;;;;5069932;28;20432;-63
2022/01/08 02:52:46;;;;;;;1.30;0.90;;;17.40;36.90;;;;;;5071651;28;20417;-64
2022/01/08 02:55:14;;;;;;;0.83;0.83;;;17.50;37.00;;;;;;5071688;28;20583;-65
2022/01/08 02:57:40;;;;;;;1.00;0.90;;;17.50;37.00;;;;;;5071949;28;20448;-64
2022/01/08 03:00:08;;;;;;;1.13;1.03;;;17.50;37.00;;;;;;5071422;28;20949;-64
2022/01/08 03:02:39;;;;;;;1.00;0.90;;;17.50;37.00;;;;;;5070695;28;20218;-64
2022/01/08 03:05:07;;;;;;;1.10;1.00;;;17.50;37.00;;;;;;5071420;28;20458;-64
2022/01/08 03:07:33;;;;;;;0.87;0.83;;;17.40;36.90;;;;;;5071408;28;20926;-64
2022/01/08 03:09:59;;;;;;;0.77;0.77;;;17.50;37.00;;;;;;5071751;28;20413;-64
2022/01/08 03:12:27;;;;;;;0.90;0.90;;;17.50;37.00;;;;;;5071048;28;20221;-64
2022/01/08 03:14:54;;;;;;;0.80;0.80;;;17.50;37.00;;;;;;5071341;28;20217;-64
2022/01/08 03:17:20;;;;;;;0.93;0.80;;;17.50;37.00;;;;;;5071219;28;20967;-64
2022/01/08 03:19:46;;;;;;;0.90;0.90;;;17.50;37.80;;;;;;5071391;28;20450;-64
2022/01/08 03:22:12;;;;;;;0.97;0.87;;;17.40;36.90;;;;;;5070477;28;20233;-65
2022/01/08 03:24:39;;;;;;;0.90;0.80;;;17.50;37.00;;;;;;5071298;28;20229;-64
2022/01/08 03:27:05;;;;;;;0.80;0.80;;;17.50;37.00;;;;;;5069345;28;20443;-64
2022/01/08 03:29:31;;;;;;;0.80;0.80;;;17.40;36.90;;;;;;5071213;28;20422;-64
2022/01/08 03:31:57;;;;;;;1.20;1.10;;;17.50;37.00;;;;;;5070602;28;20209;-64
2022/01/08 03:34:22;;;;;;;1.00;0.90;;;17.40;36.90;;;;;;5071042;28;20266;-64
2022/01/08 03:36:48;;;;;;;1.30;1.00;;;17.40;36.90;;;;;;5052907;28;20226;-64
2022/01/08 03:39:14;;;;;;;1.00;0.90;;;17.50;37.00;;;;;;5070643;28;20219;-64
2022/01/08 03:41:39;;;;;;;1.73;0.80;;;17.50;37.00;;;;;;5069138;28;20218;-64
2022/01/08 03:44:05;;;;;;;1.00;0.90;;;17.40;36.90;;;;;;5070785;28;20228;-64
2022/01/08 03:46:35;;;;;;;1.20;1.10;;;17.40;36.90;;;;;;5052132;28;20234;-64
2022/01/08 03:51:26;;;;;;;1.00;0.93;;;17.40;36.90;;;;;;5070370;28;20457;-64
2022/01/08 03:53:52;;;;;;;1.87;0.80;;;17.40;36.90;;;;;;5070840;28;20228;-64
2022/01/08 03:56:17;;;;;;;1.00;0.90;;;17.40;37.70;;;;;;5069722;28;20459;-64
2022/01/08 03:58:43;;;;;;;0.90;0.90;;;17.40;36.90;;;;;;5070844;28;20217;-64
2022/01/08 04:01:09;;;;;;;1.43;1.10;;;17.40;36.90;;;;;;5069666;28;20226;-64
2022/01/08 04:03:34;;;;;;;1.00;0.90;;;17.40;36.90;;;;;;5052103;28;20224;-65
2022/01/08 04:06:00;;;;;;;0.90;0.90;;;17.40;36.90;;;;;;5070454;28;20241;-64
2022/01/08 04:08:26;;;;;;;1.00;0.90;;;17.50;37.00;;;;;;5070470;28;20296;-64
2022/01/08 04:10:52;;;;;;;0.73;0.73;;;17.50;37.00;;;;;;5069872;28;20218;-64
2022/01/08 04:13:28;;;;;;;1.03;0.93;;;17.50;37.00;;;;;;5070333;28;20413;-64
2022/01/08 04:15:59;;;;;;;0.90;0.90;;;17.50;37.00;;;;;;5069072;28;20224;-64
2022/01/08 04:18:24;;;;;;;1.00;0.90;;;17.50;37.00;;;;;;5067346;28;20429;-64
2022/01/08 04:21:04;;;;;;;1.20;1.10;;;17.50;37.00;;;;;;5069906;28;20444;-64
2022/01/08 04:23:30;;;;;;;1.27;0.90;;;17.50;37.00;;;;;;5069484;28;20225;-64
2022/01/08 04:25:56;;;;;;;0.90;0.80;;;17.50;37.00;;;;;;5070279;28;21007;-64
2022/01/08 04:28:22;;;;;;;0.90;0.90;;;17.60;37.10;;;;;;5069811;28;20683;-64
2022/01/08 04:30:48;;;;;;;1.10;1.00;;;17.60;37.10;;;;;;5069478;28;20222;-64
2022/01/08 04:33:14;;;;;;;0.80;0.80;;;17.60;37.10;;;;;;5069944;28;20443;-64
2022/01/08 04:35:40;;;;;;;0.93;0.87;;;17.60;37.10;;;;;;5068868;28;20439;-64
2022/01/08 04:38:06;;;;;;;1.00;0.83;;;17.60;37.10;;;;;;5066274;28;20230;-68
2022/01/08 04:40:33;;;;;;;0.90;0.80;;;17.60;37.10;;;;;;5068270;28;20234;-67
2022/01/08 04:42:59;;;;;;;1.10;1.00;;;17.70;37.20;;;;;;5069213;28;20444;-66
2022/01/08 04:45:29;;;;;;;1.23;1.13;;;17.60;37.10;;;;;;5069135;28;20433;-66
2022/01/08 04:47:58;;;;;;;1.00;0.90;;;17.70;37.20;;;;;;5068874;28;20461;-65
2022/01/08 04:50:25;;;;;;;0.83;0.80;;;17.60;37.10;;;;;;5069073;28;20421;-65
2022/01/08 04:52:51;;;;;;;1.00;0.90;;;17.70;37.20;;;;;;5069007;28;20860;-63
2022/01/08 04:55:17;;;;;;;1.50;0.97;;;17.60;37.10;;;;;;5069330;28;20488;-62
2022/01/08 04:57:44;;;;;;;1.00;0.80;;;17.60;37.10;;;;;;5069482;28;20463;-65
2022/01/08 05:00:10;;;;;;;1.63;0.90;;;17.60;37.10;;;;;;5069778;28;20483;-64
2022/01/08 05:02:36;;;;;;;1.20;1.10;;;17.60;37.10;;;;;;5068998;28;20488;-64
2022/01/08 05:05:02;;;;;;;1.13;0.87;;;17.60;37.10;;;;;;5069074;28;20463;-64
2022/01/08 05:07:27;;;;;;;1.00;0.90;;;17.60;37.10;;;;;;5068876;28;20677;-64
2022/01/08 05:09:53;;;;;;;1.10;1.00;;;17.60;37.10;;;;;;5069048;28;20424;-64
2022/01/08 05:12:19;;;;;;;1.47;1.10;;;17.60;37.90;;;;;;5068702;28;20225;-64
2022/01/08 05:14:44;;;;;;;1.27;1.17;;;17.60;37.10;;;;;;5069059;28;20224;-64
2022/01/08 05:17:11;;;;;;;1.10;1.00;;;17.60;37.10;;;;;;5069332;28;20589;-63
2022/01/08 05:19:42;;;;;;;1.17;1.00;;;17.60;37.10;;;;;;5069190;28;20218;-65
2022/01/08 05:22:10;;;;;;;0.97;0.90;;;17.60;37.10;;;;;;5066986;28;20449;-65
2022/01/08 05:24:36;;;;;;;1.30;1.20;;;17.60;37.10;;;;;;5068974;28;20453;-64
2022/01/08 05:27:03;;;;;;;1.33;1.20;;;17.60;37.80;;;;;;5068985;28;20430;-64
2022/01/08 05:29:30;;;;;;;1.00;0.90;;;17.60;37.10;;;;;;5068990;28;20298;-64
2022/01/08 05:31:56;;;;;;;1.63;1.00;;;17.70;37.20;;;;;;5068308;28;20478;-63
2022/01/08 05:34:21;;;;;;;1.40;0.87;;;17.70;37.20;;;;;;5069024;28;20911;-64
2022/01/08 05:36:47;;;;;;;0.97;0.97;;;17.70;37.20;;;;;;5068419;28;20298;-63
2022/01/08 05:39:13;;;;;;;1.40;1.30;;;17.70;37.20;;;;;;5050749;28;20241;-63
2022/01/08 05:41:38;;;;;;;1.90;0.90;;;17.70;37.20;;;;;;5069485;28;20217;-63
2022/01/08 05:44:04;;;;;;;1.10;1.00;;;17.70;37.20;;;;;;5068655;28;20584;-63
2022/01/08 05:46:30;;;;;;;1.20;1.00;;;17.70;37.20;;;;;;5068378;28;20834;-63
2022/01/08 05:49:02;;;;;;;1.10;1.00;;;17.70;37.20;;;;;;5067696;28;20222;-63
2022/01/08 05:51:28;;;;;;;1.87;1.30;;;17.70;37.20;;;;;;5071372;28;20217;-63
2022/01/08 05:53:53;;;;;;;1.50;1.10;;;17.70;37.20;;;;;;5073159;28;20789;-65
2022/01/08 05:56:19;;;;;;;2.00;1.40;;;17.70;37.20;;;;;;5072674;28;20277;-64
2022/01/08 05:58:44;;;;;;;2.07;1.00;;;17.70;37.20;;;;;;5072994;28;20244;-64
2022/01/08 06:01:10;;;;;;;0.93;0.90;;;17.70;37.20;;;;;;5072382;28;20265;-63
2022/01/08 06:03:36;;;;;;;1.27;1.10;;;17.70;37.20;;;;;;5072304;28;20248;-63
2022/01/08 06:06:01;;;;;;;5.63;1.20;;;17.70;37.20;;;;;;5072748;28;20230;-63
2022/01/08 06:08:27;;;;;;;1.43;1.20;;;17.70;37.20;;;;;;5072117;28;20214;-64
2022/01/08 06:10:52;;;;;;;1.23;1.13;;;17.70;37.20;;;;;;5072171;28;20869;-64
2022/01/08 06:13:18;;;;;;;1.13;1.03;;;17.70;37.20;;;;;;5072639;28;20218;-64
2022/01/08 06:15:44;;;;;;;1.17;1.00;;;17.70;37.20;;;;;;5072382;28;20225;-64
2022/01/08 06:18:09;;;;;;;1.20;1.10;;;17.70;37.20;;;;;;5054367;28;20715;-63
2022/01/08 06:20:35;;;;;;;1.77;1.67;;;17.70;37.20;;;;;;5052324;28;20222;-63
2022/01/08 06:23:00;;;;;;;1.30;1.20;;;17.70;37.20;;;;;;5072444;28;20312;-63
2022/01/08 06:25:26;;;;;;;2.30;1.23;;;17.70;37.20;;;;;;5071616;28;20218;-63
2022/01/08 06:27:54;;;;;;;1.10;1.00;;;17.70;37.20;;;;;;5070624;28;20218;-63
2022/01/08 06:30:19;;;;;;;1.30;1.20;;;17.70;37.20;;;;;;5072251;28;20275;-63
2022/01/08 06:32:45;;;;;;;2.67;1.60;;;17.70;37.20;;;;;;5071148;28;20409;-63
2022/01/08 06:35:10;;;;;;;2.27;1.10;;;17.70;37.20;;;;;;5072060;28;20218;-63
2022/01/08 06:37:36;;;;;;;1.20;1.10;;;17.70;37.20;;;;;;5072465;28;20233;-63
2022/01/08 06:40:02;;;;;;;1.30;1.20;;;17.70;37.20;;;;;;5053816;28;20735;-63
2022/01/08 06:42:28;;;;;;;1.40;1.20;;;17.70;37.20;;;;;;5071755;28;20217;-62
2022/01/08 06:44:53;;;;;;;1.30;1.10;;;17.70;37.10;;;;;;5071971;28;20675;-63
2022/01/08 06:47:19;;;;;;;1.40;1.30;;;17.70;37.20;;;;;;5071682;28;20221;-63
2022/01/08 06:49:44;;;;;;;1.30;1.20;;;17.70;37.20;;;;;;5071846;28;20219;-63
2022/01/08 06:52:10;;;;;;;2.13;1.10;;;17.70;37.20;;;;;;5072192;28;20224;-63
2022/01/08 06:54:36;;;;;;;2.40;1.20;;;17.70;37.20;;;;;;5071630;28;20241;-63
2022/01/08 06:57:01;;;;;;;1.93;1.10;;;17.70;37.20;;;;;;5071937;28;20257;-63
2022/01/08 06:59:27;;;;;;;1.23;1.13;;;17.70;37.20;;;;;;5071473;28;20228;-63
2022/01/08 07:01:53;;;;;;;1.27;1.13;;;17.70;37.20;;;;;;5071409;28;20230;-63
2022/01/08 07:04:18;;;;;;;1.37;1.10;;;17.70;37.20;;;;;;5069453;28;20249;-62
2022/01/08 07:06:44;;;;;;;1.97;1.30;;;17.70;37.20;;;;;;5069502;28;20252;-62
2022/01/08 07:09:09;;;;;;;1.43;1.10;;;17.70;37.20;;;;;;5071201;28;20347;-63
2022/01/08 07:11:35;;;;;;;1.27;1.17;;;17.70;37.20;;;;;;5071614;28;20304;-62
2022/01/08 07:14:02;;;;;;;1.37;1.20;;;17.70;37.20;;;;;;5071477;28;20618;-62
2022/01/08 07:16:27;;;;;;;1.30;1.10;;;17.70;37.20;;;;;;5071151;28;20257;-64
2022/01/08 07:18:53;;;;;;;1.30;1.20;;;17.70;37.20;;;;;;5071466;28;20417;-64
2022/01/08 07:21:19;;;;;;;1.40;1.30;;;17.70;37.20;;;;;;5071047;28;20311;-63
2022/01/08 07:23:44;;;;;;;1.20;1.10;;;17.70;37.20;;;;;;5071229;28;20224;-63
2022/01/08 07:26:10;;;;;;;1.43;1.20;;;17.70;37.20;;;;;;5071475;28;20221;-63
2022/01/08 07:28:37;;;;;;;1.73;1.17;;;17.70;37.20;;;;;;5070045;28;20214;-68
2022/01/08 07:31:03;;;;;;;1.13;1.03;;;17.70;37.40;;;;;;5071207;28;20245;-78
2022/01/08 07:33:28;;;;;;;2.27;1.33;;;17.70;37.40;;;;;;5071058;28;20498;-66
2022/01/08 07:35:54;;;;;;;1.00;0.90;;;17.70;37.20;;;;;;5070909;28;20715;-66
2022/01/08 07:38:20;;;;;;;1.10;1.00;;;17.70;37.20;;;;;;5070882;28;20753;-66
2022/01/08 07:40:50;;;;;;;1.00;0.90;;;17.80;37.30;;;;;;5070773;28;20242;-65
2022/01/08 07:43:17;;;;;;;1.30;1.20;;;17.80;37.30;;;;;;5070305;28;20739;-64
2022/01/08 07:45:43;;;;;;;1.23;1.13;;;17.80;37.30;;;;;;5069230;28;20954;-65
2022/01/08 07:48:08;;;;;;;1.43;1.10;;;17.80;37.30;;;;;;5071521;28;20463;-64
2022/01/08 07:50:34;;;;;;;1.20;1.10;;;17.80;38.00;;;;;;5070389;28;20222;-65
2022/01/08 07:53:00;;;;;;;1.30;1.20;;;17.80;37.30;;;;;;5070822;28;20241;-65
2022/01/08 07:55:25;;;;;;;1.00;0.90;;;17.80;37.30;;;;;;5070466;28;20234;-65
2022/01/08 07:57:51;;;;;;;1.17;1.07;;;17.80;37.30;;;;;;5070103;28;20296;-65
2022/01/08 08:00:17;;;;;;;1.30;1.20;;;17.80;37.30;;;;;;5069179;28;20245;-65
2022/01/08 08:02:43;;;;;;;1.23;1.10;;;17.80;37.30;;;;;;5069301;28;20738;-65
2022/01/08 08:05:09;;;;;;;1.20;1.10;;;17.80;37.30;;;;;;5070604;28;20516;-65
2022/01/08 08:07:36;;;;;;;1.37;1.03;;;17.80;37.30;;;;;;5070302;28;20230;-65
2022/01/08 08:10:12;;;;;;;1.10;1.00;;;17.80;37.30;;;;;;5070441;28;20439;-65
2022/01/08 08:12:39;;;;;;;1.10;1.00;;;17.80;37.30;;;;;;5068346;28;20451;-65
2022/01/08 08:15:06;;;;;;;2.07;1.17;;;17.80;37.30;;;;;;5070404;28;20478;-64
2022/01/08 08:17:33;;;;;;;2.43;1.17;;;17.80;37.40;;;;;;5069059;28;20451;-65
2022/01/08 08:19:59;;;;;;;4.90;1.20;;;17.80;37.50;;;;;;5070271;28;20447;-65
2022/01/08 08:22:24;;;;;;;1.43;1.33;;;17.80;37.60;;;;;;5070049;28;20424;-65
2022/01/08 08:24:50;;;;;;;2.03;1.93;;;17.80;37.70;;;;;;5068784;28;20794;-65
2022/01/08 08:27:16;;;;;;;2.03;1.40;;;17.80;37.70;;;;;;5069619;28;20226;-65
2022/01/08 08:29:41;;;;;;;2.20;1.40;;;17.70;37.60;;;;;;5050830;28;20244;-65
2022/01/08 08:32:07;;;;;;;1.53;1.27;;;17.70;37.60;;;;;;5070644;28;20256;-65
2022/01/08 08:34:33;;;;;;;1.50;1.40;;;17.70;37.70;;;;;;5069676;28;20221;-64
2022/01/08 08:36:59;;;;;;;1.60;1.50;;;17.70;37.70;;;;;;5069888;28;20499;-65
2022/01/08 08:39:25;;;;;;;1.30;1.20;;;17.70;37.70;;;;;;5068489;28;20238;-66
2022/01/08 08:41:51;;;;;;;1.53;1.37;;;17.70;37.70;;;;;;5069342;28;20221;-66
2022/01/08 08:44:17;;;;;;;1.83;1.40;;;17.70;37.60;;;;;;5068087;28;20218;-66
2022/01/08 08:46:43;;;;;;;1.50;1.40;;;17.70;37.50;;;;;;5069376;28;20222;-65
2022/01/08 08:49:09;;;;;;;1.93;1.20;;;17.70;37.60;;;;;;5069949;28;20218;-66
2022/01/08 08:51:35;;;;;;;1.23;1.13;;;17.70;37.50;;;;;;5069170;28;20821;-65
2022/01/08 08:54:01;;;;;;;1.30;1.17;;;17.70;37.60;;;;;;5069368;28;20224;-65
2022/01/08 08:56:28;;;;;;;1.50;1.40;;;17.70;37.60;;;;;;5068826;28;20229;-64
2022/01/08 08:58:53;;;;;;;1.50;1.40;;;17.70;37.60;;;;;;5068921;28;20516;-65
2022/01/08 09:01:19;;;;;;;3.80;1.57;;;17.70;37.50;;;;;;5050972;28;20512;-64
2022/01/08 09:03:45;;;;;;;1.90;1.70;;;17.70;37.60;;;;;;5068968;28;20222;-64
2022/01/08 09:06:10;;;;;;;1.80;1.70;;;17.70;37.60;;;;;;5069805;28;20634;-64
2022/01/08 09:08:36;;;;;;;2.40;1.70;;;17.70;37.50;;;;;;5069116;28;20253;-65
2022/01/08 09:11:01;;;;;;;3.60;2.17;;;17.70;37.30;;;;;;5069106;28;20275;-64
2022/01/08 09:13:28;;;;;;;2.20;1.70;;;17.70;37.60;;;;;;5068862;28;20218;-64
2022/01/08 09:15:54;;;;;;;2.03;1.93;;;17.70;37.40;;;;;;5068846;28;20218;-65
2022/01/08 09:25:05;;;;;;;3.93;1.50;;;17.70;37.10;;;;;;5036260;27;20558;-65
2022/01/08 09:28:34;;;;;;;1.97;1.77;;;17.60;37.20;;;;;;5036645;27;20580;-65
2022/01/08 09:31:01;;;;;;;1.87;1.77;;;17.60;38.00;;;;;;5034965;28;20987;-65
2022/01/08 09:33:27;;;;;;;2.03;1.93;;;17.70;38.10;;;;;;5037095;28;20231;-65
2022/01/08 09:35:53;;;;;;;4.40;1.53;;;17.60;38.00;;;;;;5036342;28;20417;-65
2022/01/08 09:38:19;;;;;;;1.80;1.70;;;17.70;38.10;;;;;;5038374;28;20851;-70
2022/01/08 09:40:45;;;;;;;1.67;1.57;;;17.70;38.10;;;;;;5032428;28;20237;-68
2022/01/08 09:43:12;;;;;;;2.80;2.00;;;17.70;38.10;;;;;;5039846;28;20427;-69
2022/01/08 09:45:38;;;;;;;1.70;1.60;;;17.70;38.10;;;;;;5036364;28;20885;-67
2022/01/08 09:48:04;;;;;;;2.00;1.70;;;17.70;38.10;;;;;;5037663;28;20470;-67
2022/01/08 09:50:30;;;;;;;1.97;1.70;;;17.70;38.10;;;;;;5010808;28;20223;-67
2022/01/08 09:52:58;;;;;;;5.07;1.60;;;17.70;38.10;;;;;;5037236;28;20449;-70
2022/01/08 09:55:26;;;;;;;1.70;1.60;;;17.70;38.10;;;;;;5037977;28;20219;-69
2022/01/08 09:57:52;;;;;;;1.67;1.30;;;17.70;38.10;;;;;;5035274;28;20435;-70
2022/01/08 10:00:19;;;;;;;1.90;1.53;;;17.70;38.10;;;;;;5033571;28;20465;-75
2022/01/08 10:02:45;;;;;;;3.97;1.90;;;17.70;38.00;;;;;;5033854;28;20479;-71
2022/01/08 10:05:15;;;;;;;2.80;1.93;;;17.80;38.10;;;;;;5037433;28;20446;-68
2022/01/08 10:07:41;;;;;;;2.00;1.57;;;17.80;38.10;;;;;;5034263;28;20220;-68
2022/01/08 10:10:15;;;;;;;1.40;1.30;;;17.80;38.10;;;;;;5035595;28;21019;-68
2022/01/08 10:12:50;;;;;;;1.57;1.47;;;17.80;38.10;;;;;;5035878;28;20453;-67
2022/01/08 10:18:19;;;;;;;1.90;1.77;;;17.80;38.10;;;;;;5038693;28;20543;-67
2022/01/08 10:20:49;;;;;;;3.33;1.50;;;17.80;38.10;;;;;;5035867;28;20471;-67
2022/01/08 10:23:25;;;;;;;1.87;1.77;;;17.80;38.10;;;;;;5035133;28;20455;-67
2022/01/08 10:26:05;;;;;;;4.33;1.70;;;17.80;38.10;;;;;;5033979;28;20474;-67
2022/01/08 10:28:46;;;;;;;1.83;1.63;;;17.80;38.10;;;;;;5068777;28;20454;-67
2022/01/08 10:31:31;;;;;;;2.03;1.93;;;17.80;38.10;;;;;;5034647;28;20447;-68
2022/01/08 10:34:02;;;;;;;1.90;1.70;;;17.80;38.10;;;;;;5032497;28;20822;-67
2022/01/08 10:36:33;;;;;;;1.70;1.60;;;17.80;38.10;;;;;;5037876;28;20434;-67
2022/01/08 10:39:05;;;;;;;2.10;1.90;;;17.80;38.00;;;;;;5027882;28;20481;-67
2022/01/08 10:41:30;;;;;;;3.10;1.60;;;17.80;37.90;;;;;;5021529;28;20510;-67
2022/01/08 10:44:12;;;;;;;1.90;1.80;;;17.80;37.90;;;;;;5023633;28;20457;-67
2022/01/08 10:46:39;;;;;;;1.93;1.83;;;17.80;37.80;;;;;;5024811;28;20247;-66
2022/01/08 10:49:05;;;;;;;3.20;1.73;;;17.70;37.70;;;;;;5022825;28;20438;-67
2022/01/08 10:51:38;;;;;;;1.60;1.40;;;17.70;37.60;;;;;;5021171;28;23493;-66
2022/01/08 10:54:15;;;;;;;1.70;1.60;;;17.70;37.50;;;;;;5025109;28;20417;-66
2022/01/08 10:56:46;;;;;;;1.83;1.73;;;17.70;37.30;;;;;;5021283;28;20510;-67
2022/01/08 10:59:21;;;;;;;2.07;1.50;;;17.70;37.20;;;;;;5020584;28;20526;-67
2022/01/08 11:01:54;;;;;;;1.60;1.50;;;17.70;37.20;;;;;;5018998;28;20449;-66
2022/01/08 11:04:45;;;;;;;2.53;1.50;;;17.70;37.20;;;;;;5022030;28;20579;-67
2022/01/08 11:07:18;;;;;;;1.60;1.50;;;17.70;37.20;;;;;;5021878;28;20439;-68
2022/01/08 11:09:45;;;;;;;2.20;2.00;;;17.70;37.20;;;;;;5023275;28;20542;-66
2022/01/08 11:12:18;;;;;;;1.87;1.77;;;17.70;37.20;;;;;;5021677;28;20448;-66
2022/01/08 11:15:00;;;;;;;1.50;1.40;;;17.70;37.20;;;;;;5024458;28;20445;-66
2022/01/08 11:17:30;;;;;;;1.50;1.40;;;17.70;37.20;;;;;;5021735;28;20432;-68
2022/01/08 11:20:01;;;;;;;1.67;1.50;;;17.70;37.20;;;;;;5021432;28;20518;-67
2022/01/08 11:22:29;;;;;;;1.50;1.40;;;17.70;37.20;;;;;;5020646;28;20456;-66
2022/01/08 11:25:08;;;;;;;1.60;1.50;;;17.70;37.20;;;;;;5023589;28;20971;-66
2022/01/08 11:28:05;;;;;;;1.83;1.73;;;17.70;37.20;;;;;;5018686;28;20871;-66
2022/01/08 11:30:34;;;;;;;1.67;1.47;;;17.70;37.20;;;;;;5020264;28;20423;-66
2022/01/08 11:33:07;;;;;;;1.70;1.40;;;17.70;37.20;;;;;;5021544;28;20420;-66
2022/01/08 11:35:35;;;;;;;1.30;1.20;;;17.70;37.20;;;;;;5020937;28;20885;-66
2022/01/08 11:38:04;;;;;;;1.97;1.50;;;17.70;37.20;;;;;;5022136;28;21547;-66
2022/01/08 11:40:31;;;;;;;1.30;1.20;;;17.70;37.20;;;;;;5022727;28;20443;-68
2022/01/08 11:43:03;;;;;;;1.50;1.40;;;17.70;37.00;;;;;;5019741;28;20451;-67
2022/01/08 11:45:36;;;;;;;1.93;1.10;;;17.70;37.50;;;;;;5024356;28;20464;-66
2022/01/08 11:48:05;;;;;;;1.50;1.40;;;17.70;36.50;;;;;;5020214;28;20520;-66
2022/01/08 11:50:32;;;;;;;1.47;1.37;;;17.70;36.40;;;;;;5019495;28;20427;-66
2022/01/08 11:53:21;;;;;;;1.60;1.50;;;17.70;36.20;;;;;;5021315;28;20427;-66
2022/01/08 11:55:57;;;;;;;1.50;1.33;;;17.70;36.20;;;;;;5018646;28;20977;-65
2022/01/08 11:58:31;;;;;;;1.30;1.20;;;17.70;36.10;;;;;;5020216;28;20446;-65
2022/01/08 12:01:12;;;;;;;1.20;1.10;;;17.70;36.10;;;;;;5019829;28;20424;-66
2022/01/08 12:03:40;;;;;;;1.27;1.17;;;17.80;36.20;;;;;;5017890;28;21004;-66
2022/01/08 12:06:35;;;;;;;1.20;1.10;;;17.80;36.20;;;;;;5020922;28;20428;-66
2022/01/08 12:11:50;;;;;;;1.30;1.20;;;17.80;36.30;;;;;;5020886;28;20917;-66
2022/01/08 12:14:18;;;;;;;1.43;1.10;;;17.80;36.40;;;;;;5022771;28;20460;-66
2022/01/08 12:16:46;;;;;;;1.23;1.13;;;17.80;36.50;;;;;;5016748;28;20780;-66
2022/01/08 12:19:39;;;;;;;1.73;1.23;;;17.80;36.50;;;;;;5019341;28;20428;-66
2022/01/08 12:22:17;;;;;;;5.10;1.37;;;17.80;36.50;;;;;;5021259;28;21027;-67
2022/01/08 12:24:52;;;;;;;1.23;1.13;;;17.80;36.50;;;;;;5021415;28;20441;-73
2022/01/08 12:27:38;;;;;;;1.20;1.10;;;17.70;36.30;;;;;;5017489;28;20489;-68
2022/01/08 12:30:15;;;;;;;1.40;1.30;;;17.70;36.30;;;;;;5025286;28;20419;-67
2022/01/08 12:32:45;;;;;;;1.30;1.20;;;17.70;36.20;;;;;;5023265;28;20471;-66
2022/01/08 12:35:26;;;;;;;2.40;1.20;;;17.70;36.10;;;;;;5017986;28;20427;-67
2022/01/08 12:37:54;;;;;;;1.30;1.20;;;17.80;36.30;;;;;;5018508;28;20426;-66
2022/01/08 12:40:40;;;;;;;2.80;1.20;;;17.70;36.20;;;;;;5019803;28;20448;-65
2022/01/08 12:43:33;;;;;;;4.27;1.20;;;17.80;36.30;;;;;;5019910;28;20425;-66
2022/01/08 12:46:19;;;;;;;1.10;1.00;;;17.80;36.20;;;;;;5016895;28;20563;-65
2022/01/08 12:49:03;;;;;;;1.47;0.93;;;17.80;36.10;;;;;;5018083;28;20496;-67
2022/01/08 12:51:51;;;;;;;1.00;0.90;;;17.80;36.00;;;;;;5017686;28;20540;-66
2022/01/08 12:54:20;;;;;;;1.20;1.10;;;17.80;35.80;;;;;;5015275;28;20543;-66
2022/01/08 12:56:47;;;;;;;1.33;1.10;;;17.80;35.80;;;;;;5022042;28;20448;-65
2022/01/08 12:59:13;;;;;;;1.13;1.03;;;17.80;35.70;;;;;;5021744;28;20803;-65
2022/01/08 13:01:40;;;;;;;1.57;1.20;;;17.80;35.60;;;;;;5019868;28;20958;-65
2022/01/08 13:04:15;;;;;;;1.10;1.00;;;17.80;35.60;;;;;;5020741;28;20442;-65
2022/01/08 13:06:40;;;;;;;1.20;0.93;;;17.80;35.80;;;;;;5018982;28;20489;-66
2022/01/08 13:09:08;;;;;;;1.20;1.10;;;17.80;35.80;;;;;;5019973;28;20491;-65
2022/01/08 13:11:36;;;;;;;1.30;0.93;;;17.80;35.80;;;;;;5018239;28;20311;-65
2022/01/08 13:14:17;;;;;;;1.20;1.10;;;17.80;35.90;;;;;;5023759;28;20416;-65
2022/01/08 13:16:47;;;;;;;1.00;0.90;;;17.80;35.90;;;;;;5020672;28;20427;-66
2022/01/08 13:19:22;;;;;;;1.20;0.90;;;17.80;35.90;;;;;;5020333;28;20469;-65
2022/01/08 13:21:51;;;;;;;1.23;1.10;;;17.80;36.00;;;;;;5024425;28;20498;-65
2022/01/08 13:24:24;;;;;;;2.80;1.27;;;17.80;36.00;;;;;;5017928;28;20435;-65
2022/01/08 13:26:58;;;;;;;1.47;1.00;;;17.80;35.90;;;;;;5019380;28;20486;-66